createdAt,value
2018-07-21T00:00:15.424Z,99.90
2018-07-21T00:02:43.558Z,99.90
2018-07-21T00:05:11.744Z,99.90
2018-07-21T00:07:39.895Z,99.90
2018-07-21T00:10:07.993Z,99.90
2018-07-21T00:12:36.051Z,99.90
2018-07-21T00:15:04.529Z,99.90
2018-07-21T00:17:32.580Z,99.90
2018-07-21T00:20:00.663Z,99.90
2018-07-21T00:22:28.777Z,99.90
2018-07-21T00:24:56.924Z,99.90
2018-07-21T00:27:24.984Z,99.90
2018-07-21T00:29:53.048Z,99.90
2018-07-21T00:32:21.111Z,99.90
2018-07-21T00:34:49.242Z,99.90
2018-07-21T00:37:17.369Z,99.90
2018-07-21T00:39:45.460Z,99.90
2018-07-21T00:42:13.629Z,99.90
2018-07-21T00:44:41.716Z,99.90
2018-07-21T00:47:09.773Z,99.90
2018-07-21T00:49:37.883Z,99.90
2018-07-21T00:52:06.056Z,99.90
2018-07-21T00:54:34.149Z,99.90
2018-07-21T00:57:02.248Z,99.90
2018-07-21T00:59:30.359Z,99.90
2018-07-21T01:01:58.420Z,99.90
2018-07-21T01:04:26.614Z,99.90
2018-07-21T01:06:54.695Z,99.90
2018-07-21T01:09:22.714Z,99.90
2018-07-21T01:11:50.835Z,99.90
2018-07-21T01:14:19.144Z,99.90
2018-07-21T01:19:15.195Z,99.90
2018-07-21T01:21:43.282Z,99.90
2018-07-21T01:24:11.401Z,99.90
2018-07-21T01:26:39.462Z,99.90
2018-07-21T01:29:07.546Z,99.90
2018-07-21T01:31:35.703Z,99.90
2018-07-21T01:34:03.800Z,99.90
2018-07-21T01:36:31.886Z,99.90
2018-07-21T01:38:59.935Z,99.90
2018-07-21T01:41:28.104Z,99.90
2018-07-21T01:43:56.176Z,99.90
2018-07-21T01:46:24.329Z,99.90
2018-07-21T01:48:52.394Z,99.90
2018-07-21T01:51:20.462Z,99.90
2018-07-21T01:53:48.522Z,99.90
2018-07-21T01:56:16.589Z,99.90
2018-07-21T01:58:44.698Z,99.90
2018-07-21T02:01:12.779Z,99.90
2018-07-21T02:03:44.400Z,99.90
2018-07-21T02:06:12.502Z,99.90
2018-07-21T02:08:40.803Z,99.90
2018-07-21T02:11:08.888Z,99.90
2018-07-21T02:13:36.960Z,99.90
2018-07-21T02:16:05.137Z,99.90
2018-07-21T02:18:33.236Z,99.90
2018-07-21T02:21:01.884Z,99.90
2018-07-21T02:25:57.801Z,99.90
2018-07-21T02:28:25.899Z,99.90
2018-07-21T02:30:53.977Z,99.90
2018-07-21T02:35:49.840Z,99.90
2018-07-21T02:38:17.921Z,99.90
2018-07-21T02:40:46.005Z,99.90
2018-07-21T02:43:14.052Z,99.90
2018-07-21T02:45:42.201Z,99.90
2018-07-21T02:48:10.246Z,99.90
2018-07-21T02:50:38.314Z,99.90
2018-07-21T02:53:06.521Z,99.90
2018-07-21T02:55:34.581Z,99.90
2018-07-21T02:58:03.006Z,99.90
2018-07-21T03:00:31.066Z,99.90
2018-07-21T03:02:59.193Z,99.90
2018-07-21T03:05:27.367Z,99.90
2018-07-21T03:07:55.410Z,99.90
2018-07-21T03:10:23.516Z,99.90
2018-07-21T03:12:51.605Z,99.90
2018-07-21T03:15:19.661Z,99.90
2018-07-21T03:17:47.737Z,99.90
2018-07-21T03:20:15.842Z,99.90
2018-07-21T03:22:43.935Z,99.90
2018-07-21T03:25:11.973Z,99.90
2018-07-21T03:27:40.109Z,99.90
2018-07-21T03:30:08.167Z,99.90
2018-07-21T03:32:36.241Z,99.90
2018-07-21T03:35:04.320Z,99.90
2018-07-21T03:37:32.418Z,99.90
2018-07-21T03:40:00.513Z,99.90
2018-07-21T03:42:28.613Z,99.90
2018-07-21T03:44:57.306Z,99.90
2018-07-21T03:47:25.378Z,99.90
2018-07-21T03:49:53.475Z,99.90
2018-07-21T03:52:21.537Z,99.90
2018-07-21T03:54:49.591Z,99.90
2018-07-21T03:57:17.662Z,99.90
2018-07-21T03:59:45.728Z,99.90
2018-07-21T04:02:13.832Z,99.90
2018-07-21T04:04:41.894Z,99.90
2018-07-21T04:07:09.934Z,99.90
2018-07-21T04:09:38.005Z,99.90
2018-07-21T04:12:06.090Z,99.90
2018-07-21T04:19:29.812Z,99.90
2018-07-21T04:21:57.932Z,99.90
2018-07-21T04:24:26.002Z,99.90
2018-07-21T04:26:54.115Z,99.90
2018-07-21T04:31:50.036Z,99.90
2018-07-21T04:36:45.954Z,99.90
2018-07-21T04:39:14.017Z,99.90
2018-07-21T04:41:42.482Z,99.90
2018-07-21T04:44:10.628Z,99.90
2018-07-21T04:46:38.669Z,99.90
2018-07-21T04:49:06.768Z,99.90
2018-07-21T04:51:34.833Z,99.90
2018-07-21T04:54:03.012Z,99.90
2018-07-21T04:56:31.133Z,99.90
2018-07-21T04:58:59.225Z,99.90
2018-07-21T05:01:27.342Z,99.90
2018-07-21T05:03:56.360Z,99.90
2018-07-21T05:06:24.468Z,99.90
2018-07-21T05:08:52.546Z,99.90
2018-07-21T05:11:20.580Z,99.90
2018-07-21T05:13:48.701Z,99.90
2018-07-21T05:16:17.104Z,99.90
2018-07-21T05:18:45.186Z,99.90
2018-07-21T05:21:13.276Z,99.90
2018-07-21T05:23:41.359Z,99.90
2018-07-21T05:26:10.085Z,99.90
2018-07-21T05:31:05.972Z,99.90
2018-07-21T05:33:34.918Z,99.90
2018-07-21T05:36:03.013Z,99.90
2018-07-21T05:38:31.092Z,99.90
2018-07-21T05:40:59.208Z,99.90
2018-07-21T05:43:27.314Z,99.90
2018-07-21T05:48:23.302Z,99.90
2018-07-21T05:50:51.453Z,99.90
2018-07-21T05:53:20.317Z,99.90
2018-07-21T05:55:48.369Z,99.90
2018-07-21T05:58:16.789Z,99.90
2018-07-21T06:00:44.829Z,99.90
2018-07-21T06:03:12.952Z,99.90
2018-07-21T06:05:40.989Z,99.90
2018-07-21T06:08:09.291Z,99.90
2018-07-21T06:10:37.427Z,99.90
2018-07-21T06:13:05.546Z,99.90
2018-07-21T06:15:33.653Z,99.90
2018-07-21T06:18:01.935Z,99.90
2018-07-21T06:20:29.987Z,99.90
2018-07-21T06:22:58.071Z,99.90
2018-07-21T06:25:26.224Z,99.90
2018-07-21T06:27:54.479Z,99.90
2018-07-21T06:32:50.551Z,99.90
2018-07-21T06:35:18.621Z,99.90
2018-07-21T06:37:46.721Z,99.90
2018-07-21T06:40:14.818Z,99.90
2018-07-21T06:42:42.933Z,99.90
2018-07-21T06:45:10.989Z,99.90
2018-07-21T06:47:39.073Z,99.90
2018-07-21T06:50:08.016Z,99.90
2018-07-21T06:52:36.312Z,99.90
2018-07-21T06:55:04.408Z,99.90
2018-07-21T06:57:32.666Z,99.90
2018-07-21T07:00:00.829Z,99.90
2018-07-21T07:02:28.888Z,99.90
2018-07-21T07:04:56.941Z,99.90
2018-07-21T07:07:25.053Z,99.90
2018-07-21T07:09:53.140Z,99.90
2018-07-21T07:12:21.202Z,99.90
2018-07-21T07:14:49.263Z,99.90
2018-07-21T07:17:17.367Z,99.90
2018-07-21T07:19:45.435Z,99.90
2018-07-21T07:22:13.523Z,99.90
2018-07-21T07:24:41.643Z,99.90
2018-07-21T07:27:09.827Z,99.90
2018-07-21T07:29:37.949Z,99.90
2018-07-21T07:32:06.830Z,99.90
2018-07-21T07:34:35.559Z,99.90
2018-07-21T07:37:04.839Z,99.90
2018-07-21T07:39:32.930Z,99.90
2018-07-21T07:42:01.116Z,99.90
2018-07-21T07:44:29.240Z,99.90
2018-07-21T07:46:57.374Z,99.90
2018-07-21T07:49:25.519Z,99.90
2018-07-21T07:51:53.635Z,99.90
2018-07-21T07:54:21.718Z,99.90
2018-07-21T07:56:49.854Z,99.90
2018-07-21T07:59:17.937Z,99.90
2018-07-21T08:01:46.004Z,99.90
2018-07-21T08:04:14.112Z,99.90
2018-07-21T08:06:42.227Z,99.90
2018-07-21T08:09:12.028Z,99.90
2018-07-21T08:11:40.602Z,99.90
2018-07-21T08:14:08.723Z,99.90
2018-07-21T08:16:37.006Z,99.90
2018-07-21T08:19:05.853Z,99.90
2018-07-21T08:21:33.988Z,99.90
2018-07-21T08:24:02.125Z,99.90
2018-07-21T08:28:58.091Z,99.90
2018-07-21T08:31:26.255Z,99.90
2018-07-21T08:33:54.464Z,99.90
2018-07-21T08:36:22.583Z,99.90
2018-07-21T08:38:50.683Z,99.90
2018-07-21T08:41:18.725Z,99.90
2018-07-21T08:43:46.791Z,99.90
2018-07-21T08:46:14.930Z,99.60
2018-07-21T08:48:43.014Z,98.20
2018-07-21T08:51:11.084Z,98.70
2018-07-21T08:53:39.217Z,97.10
2018-07-21T08:56:07.380Z,97.10
2018-07-21T09:01:03.344Z,97.70
2018-07-21T09:03:31.427Z,97.70
2018-07-21T09:05:59.561Z,97.40
2018-07-21T09:08:27.673Z,97.70
2018-07-21T09:10:55.835Z,96.80
2018-07-21T09:13:23.960Z,96.80
2018-07-21T09:15:52.062Z,97.30
2018-07-21T09:18:20.194Z,97.10
2018-07-21T09:20:48.339Z,97.30
2018-07-21T09:23:16.406Z,97.90
2018-07-21T09:25:44.556Z,98.30
2018-07-21T09:28:12.772Z,98.80
2018-07-21T09:30:40.883Z,99.50
2018-07-21T09:33:09.082Z,99.90
2018-07-21T09:35:37.181Z,99.90
2018-07-21T09:38:05.492Z,99.90
2018-07-21T09:43:01.405Z,99.90
2018-07-21T09:45:29.531Z,99.90
2018-07-21T09:47:57.630Z,99.90
2018-07-21T09:50:25.738Z,99.90
2018-07-21T09:52:53.861Z,99.90
2018-07-21T09:55:21.953Z,99.90
2018-07-21T09:57:50.046Z,99.90
2018-07-21T10:00:23.619Z,99.90
2018-07-21T10:02:51.725Z,99.90
2018-07-21T10:07:48.111Z,99.90
2018-07-21T10:10:16.225Z,99.90
2018-07-21T10:12:45.130Z,99.90
2018-07-21T10:15:13.509Z,98.20
2018-07-21T10:17:41.711Z,94.80
2018-07-21T10:20:09.838Z,91.80
2018-07-21T10:22:38.140Z,96.40
2018-07-21T10:25:11.689Z,94.40
2018-07-21T10:30:13.237Z,90.00
2018-07-21T10:32:41.335Z,90.10
2018-07-21T10:35:09.432Z,83.80
2018-07-21T10:37:37.557Z,90.30
2018-07-21T10:40:05.715Z,81.60
2018-07-21T10:42:33.845Z,80.50
2018-07-21T10:45:02.080Z,83.90
2018-07-21T10:47:30.260Z,81.80
2018-07-21T10:49:58.336Z,85.00
2018-07-21T10:52:26.435Z,86.70
2018-07-21T10:54:54.620Z,85.50
2018-07-21T10:57:22.746Z,87.00
2018-07-21T10:59:51.568Z,86.00
2018-07-21T11:02:19.661Z,85.10
2018-07-21T11:04:47.727Z,88.00
2018-07-21T11:07:15.986Z,82.70
2018-07-21T11:09:44.172Z,81.50
2018-07-21T11:12:12.446Z,81.10
2018-07-21T11:14:40.611Z,80.80
2018-07-21T11:17:08.770Z,82.50
2018-07-21T11:19:37.541Z,80.60
2018-07-21T11:22:05.891Z,82.90
2018-07-21T11:24:33.987Z,83.60
2018-07-21T11:27:02.078Z,86.50
2018-07-21T11:29:30.210Z,81.30
2018-07-21T11:31:58.347Z,85.00
2018-07-21T11:34:26.429Z,85.80
2018-07-21T11:36:54.506Z,82.00
2018-07-21T11:39:22.686Z,80.80
2018-07-21T11:41:50.876Z,76.90
2018-07-21T11:44:19.227Z,82.40
2018-07-21T11:46:47.371Z,80.80
2018-07-21T11:49:15.477Z,84.50
2018-07-21T11:51:43.638Z,82.50
2018-07-21T11:54:11.740Z,81.00
2018-07-21T11:56:39.817Z,77.60
2018-07-21T11:59:07.928Z,82.70
2018-07-21T12:01:36.067Z,80.40
2018-07-21T12:04:04.153Z,82.00
2018-07-21T12:06:32.225Z,78.10
2018-07-21T12:09:00.325Z,76.60
2018-07-21T12:11:28.453Z,80.80
2018-07-21T12:13:56.540Z,79.40
2018-07-21T12:16:24.705Z,80.70
2018-07-21T12:18:52.909Z,81.70
2018-07-21T12:21:21.198Z,82.30
2018-07-21T12:26:17.337Z,81.80
2018-07-21T12:28:45.659Z,80.70
2018-07-21T12:31:13.828Z,82.90
2018-07-21T12:33:42.144Z,83.40
2018-07-21T12:36:10.329Z,83.00
2018-07-21T12:38:38.516Z,83.90
2018-07-21T12:41:08.252Z,88.30
2018-07-21T12:43:36.391Z,92.80
2018-07-21T12:48:32.503Z,92.70
2018-07-21T12:51:00.651Z,96.60
2018-07-21T12:53:28.865Z,90.40
2018-07-21T12:55:56.937Z,89.00
2018-07-21T12:58:25.129Z,90.10
2018-07-21T13:00:53.257Z,89.90
2018-07-21T13:03:21.465Z,92.30
2018-07-21T13:05:49.587Z,93.10
2018-07-21T13:08:17.640Z,90.20
2018-07-21T13:10:45.776Z,90.50
2018-07-21T13:13:13.997Z,91.60
2018-07-21T13:15:42.180Z,90.70
2018-07-21T13:18:10.976Z,91.10
2018-07-21T13:20:39.146Z,91.10
2018-07-21T13:23:07.332Z,91.10
2018-07-21T13:25:35.582Z,92.00
2018-07-21T13:28:03.747Z,91.80
2018-07-21T13:30:31.860Z,90.60
2018-07-21T13:32:59.977Z,87.90
2018-07-21T13:35:28.079Z,83.30
2018-07-21T13:37:56.193Z,83.00
2018-07-21T13:40:24.386Z,81.30
2018-07-21T13:42:52.505Z,78.80
2018-07-21T13:45:20.709Z,79.60
2018-07-21T13:47:48.813Z,79.60
2018-07-21T13:50:16.987Z,79.70
2018-07-21T13:52:45.153Z,79.60
2018-07-21T13:55:13.256Z,81.10
2018-07-21T13:57:41.364Z,83.40
2018-07-21T14:00:09.583Z,85.30
2018-07-21T14:05:05.763Z,87.10
2018-07-21T14:07:33.890Z,87.80
2018-07-21T14:10:02.044Z,88.40
2018-07-21T14:14:57.996Z,93.10
2018-07-21T14:17:26.183Z,96.30
2018-07-21T14:19:54.367Z,97.90
2018-07-21T14:22:22.503Z,99.10
2018-07-21T14:24:50.665Z,99.90
2018-07-21T14:27:18.764Z,99.90
2018-07-21T14:29:46.998Z,99.90
2018-07-21T14:32:15.099Z,99.90
2018-07-21T14:34:47.674Z,99.90
2018-07-21T14:37:15.900Z,99.90
2018-07-21T14:39:50.304Z,99.90
2018-07-21T14:42:35.907Z,99.90
2018-07-21T14:45:04.533Z,99.90
2018-07-21T14:47:32.736Z,99.30
2018-07-21T14:50:01.003Z,98.40
2018-07-21T14:52:29.147Z,98.00
2018-07-21T14:55:00.599Z,98.30
2018-07-21T14:57:59.585Z,98.60
2018-07-21T15:00:40.762Z,99.90
2018-07-21T15:03:09.359Z,99.90
2018-07-21T15:05:37.518Z,99.90
2018-07-21T15:08:05.780Z,99.90
2018-07-21T15:10:33.968Z,99.90
2018-07-21T15:13:02.147Z,99.90
2018-07-21T15:15:31.345Z,99.90
2018-07-21T15:17:59.493Z,99.90
2018-07-21T15:20:27.726Z,99.90
2018-07-21T15:22:55.828Z,99.90
2018-07-21T15:25:24.255Z,99.90
2018-07-21T15:27:52.503Z,99.90
2018-07-21T15:30:20.728Z,99.90
2018-07-21T15:32:48.949Z,99.90
2018-07-21T15:40:12.862Z,99.90
2018-07-21T15:42:41.019Z,99.90
2018-07-21T15:45:09.208Z,99.90
2018-07-21T15:47:37.465Z,99.90
2018-07-21T15:50:05.646Z,99.90
2018-07-21T15:52:33.792Z,99.90
2018-07-21T15:55:01.910Z,99.90
2018-07-21T15:57:30.059Z,99.90
2018-07-21T15:59:58.139Z,99.90
2018-07-21T16:02:26.387Z,99.90
2018-07-21T16:04:54.421Z,99.90
2018-07-21T16:07:22.524Z,99.90
2018-07-21T16:09:50.619Z,99.90
2018-07-21T16:12:18.750Z,99.90
2018-07-21T16:14:46.925Z,99.90
2018-07-21T16:17:15.061Z,99.90
2018-07-21T16:19:43.180Z,99.90
2018-07-21T16:22:11.325Z,99.90
2018-07-21T16:24:39.486Z,99.90
2018-07-21T16:27:07.552Z,99.90
2018-07-21T16:29:35.768Z,99.90
2018-07-21T16:32:03.967Z,99.90
2018-07-21T16:34:32.159Z,99.90
2018-07-21T16:37:00.249Z,99.90
2018-07-21T16:39:28.369Z,99.90
2018-07-21T16:41:56.518Z,99.90
2018-07-21T16:44:24.683Z,99.90
2018-07-21T16:47:02.247Z,99.90
2018-07-21T16:49:37.499Z,99.90
2018-07-21T16:52:06.022Z,99.90
2018-07-21T16:54:34.129Z,99.90
2018-07-21T16:57:02.264Z,99.90
2018-07-21T17:01:58.280Z,99.90
2018-07-21T17:04:26.415Z,99.90
2018-07-21T17:06:54.569Z,99.90
2018-07-21T17:09:22.737Z,99.90
2018-07-21T17:11:51.371Z,99.90
2018-07-21T17:14:19.543Z,99.90
2018-07-21T17:16:47.816Z,99.90
2018-07-21T17:19:15.959Z,99.90
2018-07-21T17:21:44.130Z,99.90
2018-07-21T17:24:12.261Z,99.90
2018-07-21T17:26:40.458Z,99.90
2018-07-21T17:29:08.612Z,99.90
2018-07-21T17:31:36.760Z,99.90
2018-07-21T17:34:04.879Z,99.90
2018-07-21T17:36:32.984Z,99.90
2018-07-21T17:39:01.234Z,99.90
2018-07-21T17:41:29.366Z,99.90
2018-07-21T17:43:57.602Z,99.90
2018-07-21T17:46:25.909Z,99.90
2018-07-21T17:48:54.018Z,99.90
2018-07-21T17:51:22.113Z,99.90
2018-07-21T17:53:50.195Z,99.90
2018-07-21T17:56:18.301Z,99.90
2018-07-21T17:58:46.485Z,99.90
2018-07-21T18:01:14.592Z,99.90
2018-07-21T18:06:10.662Z,99.90
2018-07-21T18:08:38.785Z,99.90
2018-07-21T18:11:07.014Z,99.90
2018-07-21T18:13:35.608Z,99.90
2018-07-21T18:16:03.808Z,99.90
2018-07-21T18:18:31.913Z,99.90
2018-07-21T18:21:00.102Z,99.90
2018-07-21T18:23:28.540Z,99.90
2018-07-21T18:25:56.669Z,99.90
2018-07-21T18:28:24.817Z,99.90
2018-07-21T18:30:52.956Z,99.90
2018-07-21T18:33:21.131Z,99.90
2018-07-21T18:35:49.425Z,99.90
2018-07-21T18:40:45.488Z,99.90
2018-07-21T18:43:13.595Z,99.90
2018-07-21T18:45:41.713Z,99.90
2018-07-21T18:48:09.860Z,99.90
2018-07-21T18:50:37.948Z,99.90
2018-07-21T18:53:06.048Z,99.90
2018-07-21T18:55:34.181Z,99.90
2018-07-21T18:58:02.348Z,99.90
2018-07-21T19:00:30.434Z,99.90
2018-07-21T19:02:58.486Z,99.90
2018-07-21T19:05:26.533Z,99.90
2018-07-21T19:07:54.611Z,99.90
2018-07-21T19:10:22.783Z,99.90
2018-07-21T19:12:50.961Z,99.90
2018-07-21T19:15:25.305Z,99.90
2018-07-21T19:17:53.484Z,99.90
2018-07-21T19:20:27.149Z,99.90
2018-07-21T19:22:55.237Z,99.90
2018-07-21T19:25:28.916Z,99.90
2018-07-21T19:27:57.135Z,99.90
2018-07-21T19:30:25.205Z,99.90
2018-07-21T19:32:59.868Z,99.90
2018-07-21T19:35:29.622Z,99.90
2018-07-21T19:37:58.060Z,99.90
2018-07-21T19:40:26.166Z,99.90
2018-07-21T19:42:54.405Z,99.90
2018-07-21T19:45:22.612Z,99.90
2018-07-21T19:47:50.874Z,99.90
2018-07-21T19:50:18.866Z,99.90
2018-07-21T19:52:47.078Z,99.90
2018-07-21T19:55:15.167Z,99.90
2018-07-21T19:57:43.429Z,99.90
2018-07-21T20:00:11.546Z,99.90
2018-07-21T20:02:39.696Z,99.90
2018-07-21T20:05:07.796Z,99.90
2018-07-21T20:07:35.878Z,99.90
2018-07-21T20:10:04.321Z,99.90
2018-07-21T20:12:32.425Z,99.90
2018-07-21T20:15:01.550Z,99.90
2018-07-21T20:17:29.654Z,99.90
2018-07-21T20:19:57.731Z,99.90
2018-07-21T20:22:25.789Z,99.90
2018-07-21T20:24:53.882Z,99.90
2018-07-21T20:27:21.943Z,99.90
2018-07-21T20:29:50.062Z,99.90
2018-07-21T20:32:18.205Z,99.90
2018-07-21T20:34:46.255Z,99.90
2018-07-21T20:37:14.335Z,99.90
2018-07-21T20:42:10.273Z,99.90
2018-07-21T20:44:38.518Z,99.90
2018-07-21T20:47:06.621Z,99.90
2018-07-21T20:49:34.760Z,99.90
2018-07-21T20:52:02.893Z,99.90
2018-07-21T20:56:58.932Z,99.90
2018-07-21T20:59:27.150Z,99.90
2018-07-21T21:01:55.492Z,99.90
2018-07-21T21:06:51.772Z,99.90
2018-07-21T21:09:19.857Z,99.90
2018-07-21T21:11:48.021Z,99.90
2018-07-21T21:14:16.240Z,99.90
2018-07-21T21:16:44.510Z,99.90
2018-07-21T21:19:12.617Z,99.90
2018-07-21T21:21:40.685Z,99.90
2018-07-21T21:29:04.530Z,99.90
2018-07-21T21:31:32.655Z,99.90
2018-07-21T21:34:00.686Z,99.90
2018-07-21T21:36:28.773Z,99.90
2018-07-21T21:38:56.835Z,99.90
2018-07-21T21:41:25.287Z,99.90
2018-07-21T21:43:53.556Z,99.90
2018-07-21T21:46:21.696Z,99.90
2018-07-21T21:48:49.892Z,99.90
2018-07-21T21:51:17.976Z,99.90
2018-07-21T21:53:46.141Z,99.90
2018-07-21T21:56:14.272Z,99.90
2018-07-21T21:58:42.407Z,99.90
2018-07-21T22:01:11.862Z,99.90
2018-07-21T22:03:40.021Z,99.90
2018-07-21T22:06:08.251Z,99.90
2018-07-21T22:08:36.323Z,99.90
2018-07-21T22:11:04.787Z,99.90
2018-07-21T22:16:01.032Z,99.90
2018-07-21T22:18:29.921Z,99.90
2018-07-21T22:20:58.620Z,99.90
2018-07-21T22:23:26.721Z,99.90
2018-07-21T22:25:54.818Z,99.90
2018-07-21T22:28:22.934Z,99.90
2018-07-21T22:30:51.023Z,99.90
2018-07-21T22:33:19.146Z,99.90
2018-07-21T22:35:47.297Z,99.90
2018-07-21T22:38:15.364Z,99.90
2018-07-21T22:40:43.510Z,99.90
2018-07-21T22:43:11.596Z,99.90
2018-07-21T22:45:39.767Z,99.90
2018-07-21T22:48:07.933Z,99.90
2018-07-21T22:50:36.090Z,99.90
2018-07-21T22:53:04.417Z,99.90
2018-07-21T22:55:32.505Z,99.90
2018-07-21T22:58:00.556Z,99.90
2018-07-21T23:00:28.633Z,99.90
2018-07-21T23:02:56.715Z,99.90
2018-07-21T23:05:24.796Z,99.90
2018-07-21T23:07:52.908Z,99.90
2018-07-21T23:10:21.030Z,99.90
2018-07-21T23:12:49.181Z,99.90
2018-07-21T23:15:17.284Z,99.90
2018-07-21T23:17:45.387Z,99.90
2018-07-21T23:22:41.307Z,99.90
2018-07-21T23:25:09.388Z,99.90
2018-07-21T23:27:37.454Z,99.90
2018-07-21T23:32:33.526Z,99.90
2018-07-21T23:35:01.621Z,99.90
2018-07-21T23:37:29.682Z,99.90
2018-07-21T23:39:57.760Z,99.90
2018-07-21T23:42:25.969Z,99.90
2018-07-21T23:44:54.051Z,99.90
2018-07-21T23:47:22.193Z,99.90
2018-07-21T23:49:50.271Z,99.90
2018-07-21T23:52:18.400Z,99.90
2018-07-21T23:54:46.459Z,99.90
2018-07-21T23:57:14.589Z,99.90
2018-07-21T23:59:42.663Z,99.90
